Time;durP1;ratioP1;P1;durP2;ratioP2;P2;SDS_P1;SDS_P2;PMS_P1;PMS_P2;Temp;Humidity;BMP_temperature;BMP_pressure;BME280_temperature;BME280_humidity;BME280_pressure;Samples;Min_cycle;Max_cycle;Signal;HPM_P1;HPM_P2
2023/01/19 00:00:07;;;;;;;8.90;8.30;;;1.50;99.90;;;;;;5031544;28;20255;-65
2023/01/19 00:02:33;;;;;;;8.87;8.30;;;1.60;99.90;;;;;;5030538;28;20209;-65
2023/01/19 00:04:58;;;;;;;8.27;7.87;;;1.70;99.90;;;;;;5012025;28;20172;-64
2023/01/19 00:07:24;;;;;;;8.73;7.93;;;1.70;99.90;;;;;;5012073;28;20176;-65
2023/01/19 00:09:49;;;;;;;8.87;8.10;;;1.70;99.90;;;;;;5030253;28;20207;-64
2023/01/19 00:12:15;;;;;;;8.97;8.43;;;1.70;99.90;;;;;;5031615;28;20262;-65
2023/01/19 00:14:40;;;;;;;9.57;8.87;;;1.70;99.90;;;;;;5013982;28;20515;-65
2023/01/19 00:17:06;;;;;;;8.73;8.07;;;1.70;99.90;;;;;;5011975;28;20169;-65
2023/01/19 00:19:32;;;;;;;8.40;7.90;;;1.70;99.90;;;;;;5026846;28;20213;-64
2023/01/19 00:21:57;;;;;;;8.30;7.80;;;1.70;99.90;;;;;;5031115;28;20266;-64
2023/01/19 00:24:23;;;;;;;9.23;8.50;;;1.70;99.90;;;;;;5016348;28;20180;-65
2023/01/19 00:26:48;;;;;;;8.90;8.20;;;1.70;99.90;;;;;;5011755;28;20180;-64
2023/01/19 00:29:14;;;;;;;9.40;8.80;;;1.80;99.90;;;;;;5023236;28;20233;-65
2023/01/19 00:31:40;;;;;;;9.87;9.10;;;1.70;99.90;;;;;;5031347;28;20199;-65
2023/01/19 00:34:07;;;;;;;7.40;7.10;;;1.80;99.90;;;;;;5020873;28;20196;-64
2023/01/19 00:36:33;;;;;;;7.73;7.30;;;1.70;99.90;;;;;;5019651;28;20178;-65
2023/01/19 00:38:59;;;;;;;8.23;7.83;;;1.80;99.90;;;;;;5031387;28;20160;-65
2023/01/19 00:44:10;;;;;;;8.00;7.20;;;1.70;99.90;;;;;;5011602;28;20603;-65
2023/01/19 00:46:36;;;;;;;8.03;7.53;;;1.70;99.90;;;;;;5018859;28;20179;-64
2023/01/19 00:49:01;;;;;;;8.97;8.57;;;1.60;99.90;;;;;;5031032;28;20567;-65
2023/01/19 00:51:27;;;;;;;8.23;7.73;;;1.70;99.90;;;;;;5024869;28;20644;-64
2023/01/19 00:53:52;;;;;;;7.23;6.83;;;1.70;99.90;;;;;;5011394;28;20203;-64
2023/01/19 00:56:18;;;;;;;8.63;8.03;;;1.80;99.90;;;;;;5015774;28;20284;-62
2023/01/19 00:58:46;;;;;;;8.80;8.20;;;1.80;99.90;;;;;;5030897;28;20175;-65
2023/01/19 01:01:12;;;;;;;8.77;8.37;;;1.80;99.90;;;;;;5028148;28;20187;-65
2023/01/19 01:03:38;;;;;;;8.10;7.70;;;1.90;99.90;;;;;;5011324;28;20184;-65
2023/01/19 01:06:07;;;;;;;8.87;8.27;;;1.90;99.90;;;;;;5012283;28;20179;-65
2023/01/19 01:08:32;;;;;;;9.10;8.33;;;1.80;99.90;;;;;;5031098;28;20198;-64
2023/01/19 01:10:58;;;;;;;8.43;7.63;;;1.80;99.90;;;;;;5030317;28;20207;-65
2023/01/19 01:13:24;;;;;;;8.07;7.63;;;1.70;99.90;;;;;;5011431;28;20208;-65
2023/01/19 01:15:54;;;;;;;8.27;7.90;;;1.70;99.90;;;;;;5025921;28;20259;-65
2023/01/19 01:18:20;;;;;;;7.93;7.53;;;1.70;99.90;;;;;;5031003;28;20528;-65
2023/01/19 01:20:46;;;;;;;8.23;7.83;;;1.70;99.90;;;;;;5016283;28;20176;-63
2023/01/19 01:23:12;;;;;;;9.00;8.37;;;1.70;99.90;;;;;;5029075;28;20677;-65
2023/01/19 01:25:38;;;;;;;9.13;8.53;;;1.70;99.90;;;;;;5018442;28;20279;-65
2023/01/19 01:28:07;;;;;;;8.90;8.27;;;1.70;99.90;;;;;;5011217;28;20218;-65
2023/01/19 01:30:34;;;;;;;8.40;7.90;;;1.70;99.90;;;;;;5021494;28;20230;-65
2023/01/19 01:33:00;;;;;;;7.97;7.53;;;1.70;99.90;;;;;;5030760;28;20639;-64
2023/01/19 01:35:26;;;;;;;7.50;7.10;;;1.70;99.90;;;;;;5033881;28;20180;-64
2023/01/19 01:37:51;;;;;;;10.87;8.10;;;1.60;99.90;;;;;;5019952;28;20184;-65
2023/01/19 01:40:18;;;;;;;8.50;8.00;;;1.70;99.90;;;;;;5021902;28;20179;-64
2023/01/19 01:42:44;;;;;;;9.20;8.70;;;1.70;99.90;;;;;;5032860;28;20959;-65
2023/01/19 01:45:34;;;;;;;9.30;8.77;;;1.80;99.90;;;;;;5028918;28;20538;-65
2023/01/19 01:48:25;;;;;;;9.77;8.30;;;1.70;99.90;;;;;;5018378;28;20568;-65
2023/01/19 01:53:46;;;;;;;8.10;7.40;;;1.60;99.90;;;;;;5024506;28;20604;-65
2023/01/19 01:56:16;;;;;;;9.37;8.17;;;1.60;99.90;;;;;;5014436;28;20172;-64
2023/01/19 01:58:43;;;;;;;7.53;7.23;;;1.50;99.90;;;;;;5022596;28;20178;-64
2023/01/19 02:03:55;;;;;;;8.67;8.10;;;1.50;99.90;;;;;;4994577;28;20228;-65
2023/01/19 02:06:21;;;;;;;8.00;7.60;;;1.50;99.90;;;;;;4997565;28;20173;-64
2023/01/19 02:14:22;;;;;;;7.53;7.23;;;1.50;99.90;;;;;;5034137;28;20182;-65
2023/01/19 02:16:48;;;;;;;7.33;6.93;;;1.50;99.90;;;;;;5021671;28;20196;-64
2023/01/19 02:19:29;;;;;;;8.40;7.90;;;1.40;99.90;;;;;;5013782;28;20221;-65
2023/01/19 02:22:10;;;;;;;9.10;8.23;;;1.50;99.90;;;;;;5013707;28;20176;-64
2023/01/19 02:24:36;;;;;;;9.83;9.00;;;1.40;99.90;;;;;;5012998;28;20685;-65
2023/01/19 02:27:03;;;;;;;7.83;7.43;;;1.40;99.90;;;;;;5027277;28;20275;-65
2023/01/19 02:29:29;;;;;;;7.90;7.60;;;1.40;99.90;;;;;;5033172;28;20214;-65
2023/01/19 02:31:56;;;;;;;8.53;8.00;;;1.30;99.90;;;;;;5019636;28;20177;-65
2023/01/19 02:34:22;;;;;;;8.77;8.27;;;1.30;99.90;;;;;;5013657;28;20165;-64
2023/01/19 02:37:08;;;;;;;8.43;7.93;;;1.40;99.90;;;;;;5025054;28;20199;-65
2023/01/19 02:39:55;;;;;;;9.73;9.07;;;1.40;99.90;;;;;;5033051;28;20172;-64
2023/01/19 02:42:31;;;;;;;9.63;9.13;;;1.40;99.90;;;;;;5016593;28;20659;-65
2023/01/19 02:44:57;;;;;;;9.60;9.07;;;1.40;99.90;;;;;;5011991;28;20183;-65
2023/01/19 02:47:23;;;;;;;8.17;7.70;;;1.40;99.90;;;;;;5015966;28;20184;-64
2023/01/19 02:49:56;;;;;;;7.60;7.30;;;1.40;99.90;;;;;;5011954;28;20266;-65
2023/01/19 02:52:22;;;;;;;8.63;8.20;;;1.40;99.90;;;;;;5026612;28;20551;-65
2023/01/19 02:55:05;;;;;;;9.03;8.43;;;1.40;99.90;;;;;;5012163;28;20183;-64
2023/01/19 02:57:54;;;;;;;8.63;8.13;;;1.40;99.90;;;;;;5029779;28;20183;-65
2023/01/19 03:00:45;;;;;;;9.47;8.87;;;1.40;99.90;;;;;;5022450;28;20235;-65
2023/01/19 03:03:45;;;;;;;9.27;8.77;;;1.40;99.90;;;;;;5011972;28;20202;-64
2023/01/19 03:06:52;;;;;;;9.40;8.83;;;1.40;99.90;;;;;;5014688;28;20187;-65
2023/01/19 03:09:48;;;;;;;10.20;9.70;;;1.40;99.90;;;;;;5006831;28;20200;-65
2023/01/19 03:12:28;;;;;;;9.53;9.03;;;1.50;99.90;;;;;;5027310;28;20226;-65
2023/01/19 03:15:00;;;;;;;10.43;9.73;;;1.50;99.90;;;;;;5012603;28;20191;-65
2023/01/19 03:17:28;;;;;;;9.23;8.73;;;2.00;99.90;;;;;;5031765;28;20179;-65
2023/01/19 03:19:55;;;;;;;9.40;8.90;;;1.50;99.90;;;;;;5030222;28;20680;-64
2023/01/19 03:22:25;;;;;;;9.30;8.77;;;1.50;99.90;;;;;;5011894;28;20192;-65
2023/01/19 03:24:58;;;;;;;10.10;9.37;;;1.50;99.90;;;;;;5010370;28;20183;-64
2023/01/19 03:27:40;;;;;;;9.17;8.73;;;1.50;99.90;;;;;;4992276;28;20650;-65
2023/01/19 03:30:18;;;;;;;9.33;8.83;;;1.50;99.90;;;;;;4994347;28;20585;-65
2023/01/19 03:32:55;;;;;;;9.97;9.37;;;1.50;99.90;;;;;;5031316;28;20202;-65
2023/01/19 03:35:24;;;;;;;11.00;9.97;;;1.40;99.90;;;;;;5028644;28;20649;-65
2023/01/19 03:37:53;;;;;;;9.70;9.20;;;1.40;99.90;;;;;;5011443;28;20250;-64
2023/01/19 03:40:19;;;;;;;10.23;9.70;;;1.40;99.90;;;;;;5012415;28;20173;-65
2023/01/19 03:42:47;;;;;;;10.30;9.53;;;1.40;99.90;;;;;;4973327;28;1109160;-65
2023/01/19 03:45:14;;;;;;;9.20;8.67;;;1.50;99.90;;;;;;5012304;28;20231;-65
2023/01/19 03:47:39;;;;;;;9.93;9.07;;;1.50;99.90;;;;;;4992557;28;20176;-65
2023/01/19 03:50:10;;;;;;;9.00;8.60;;;1.60;99.90;;;;;;4992176;28;20286;-65
2023/01/19 03:52:36;;;;;;;13.43;9.80;;;1.60;99.90;;;;;;5030371;28;20195;-64
2023/01/19 03:55:03;;;;;;;9.30;8.80;;;1.70;99.90;;;;;;5031937;28;20556;-65
2023/01/19 03:57:29;;;;;;;8.80;8.30;;;1.70;99.90;;;;;;5014483;28;20306;-65
2023/01/19 03:59:55;;;;;;;8.83;8.13;;;1.70;99.90;;;;;;5011730;28;20274;-65
2023/01/19 04:02:22;;;;;;;9.30;8.60;;;1.80;99.90;;;;;;5025638;28;20254;-65
2023/01/19 04:04:47;;;;;;;8.97;8.37;;;1.90;99.90;;;;;;5031629;28;20568;-65
2023/01/19 04:07:13;;;;;;;8.83;8.30;;;1.90;99.90;;;;;;5017857;28;20188;-65
2023/01/19 04:09:39;;;;;;;10.23;9.50;;;1.90;99.90;;;;;;5022576;28;20207;-65
2023/01/19 04:12:05;;;;;;;8.67;8.27;;;2.10;99.90;;;;;;5031581;28;20176;-64
2023/01/19 04:14:30;;;;;;;7.90;7.50;;;2.10;99.90;;;;;;5021769;28;20259;-65
2023/01/19 04:16:56;;;;;;;9.03;8.53;;;2.10;99.90;;;;;;5011667;28;20230;-65
2023/01/19 04:19:22;;;;;;;8.00;7.50;;;2.10;99.90;;;;;;5013117;28;20258;-65
2023/01/19 04:21:49;;;;;;;9.53;8.93;;;2.30;99.90;;;;;;5011688;28;20199;-65
2023/01/19 04:24:15;;;;;;;7.80;7.27;;;2.20;99.90;;;;;;5023407;28;20190;-65
2023/01/19 04:26:41;;;;;;;8.17;7.67;;;2.30;99.90;;;;;;5031392;28;20206;-65
2023/01/19 04:29:06;;;;;;;17.53;7.37;;;2.30;99.90;;;;;;5019937;28;20215;-64
2023/01/19 04:31:34;;;;;;;7.87;7.37;;;2.40;99.90;;;;;;5011629;28;20222;-65
2023/01/19 04:34:00;;;;;;;7.23;6.93;;;2.40;99.90;;;;;;5020655;28;20195;-65
2023/01/19 04:36:27;;;;;;;7.73;7.33;;;2.40;99.90;;;;;;5028727;28;20262;-65
2023/01/19 04:38:52;;;;;;;8.63;8.03;;;2.30;99.90;;;;;;5011669;28;20550;-65
2023/01/19 04:41:18;;;;;;;9.37;8.73;;;2.30;99.90;;;;;;5011239;28;20172;-65
2023/01/19 04:43:44;;;;;;;8.20;7.70;;;2.20;99.90;;;;;;5011437;28;20686;-65
2023/01/19 04:46:09;;;;;;;8.60;8.00;;;2.20;99.90;;;;;;5011509;28;20215;-65
2023/01/19 04:48:35;;;;;;;8.53;8.03;;;2.20;99.90;;;;;;5029194;28;20183;-64
2023/01/19 04:51:00;;;;;;;7.77;6.97;;;2.20;99.90;;;;;;5030794;28;20501;-64
2023/01/19 04:53:26;;;;;;;9.17;8.27;;;2.20;99.90;;;;;;5015433;28;20196;-65
2023/01/19 04:55:53;;;;;;;8.00;7.50;;;2.20;99.90;;;;;;5011344;28;20168;-65
2023/01/19 04:58:19;;;;;;;7.90;7.30;;;2.20;99.90;;;;;;5025276;28;20645;-64
2023/01/19 05:00:45;;;;;;;7.60;7.10;;;2.20;99.90;;;;;;5030649;28;20176;-64
2023/01/19 05:03:11;;;;;;;7.50;7.20;;;2.30;99.90;;;;;;5029246;28;20199;-65
2023/01/19 05:05:37;;;;;;;8.57;8.00;;;2.30;99.90;;;;;;5030268;28;20210;-65
2023/01/19 05:08:02;;;;;;;14.27;9.80;;;2.30;99.90;;;;;;5020721;28;20188;-65
2023/01/19 05:10:28;;;;;;;7.87;7.43;;;2.30;99.90;;;;;;5014362;28;20235;-65
2023/01/19 05:12:54;;;;;;;7.53;7.03;;;2.30;99.90;;;;;;5023314;28;20245;-65
2023/01/19 05:15:20;;;;;;;7.67;7.37;;;2.30;99.90;;;;;;5029813;28;20177;-65
2023/01/19 05:17:46;;;;;;;7.73;7.27;;;2.30;99.90;;;;;;5015291;28;20179;-65
2023/01/19 05:20:13;;;;;;;8.47;7.90;;;2.20;99.90;;;;;;5017799;28;20175;-65
2023/01/19 05:22:38;;;;;;;8.53;8.03;;;2.20;99.90;;;;;;5034626;28;20596;-65
2023/01/19 05:25:07;;;;;;;7.50;7.10;;;2.10;99.90;;;;;;5032983;28;20218;-65
2023/01/19 05:27:33;;;;;;;8.83;8.33;;;2.00;99.90;;;;;;5015020;28;20331;-65
2023/01/19 05:29:58;;;;;;;8.97;8.37;;;1.90;99.90;;;;;;5013209;28;20306;-65
2023/01/19 05:32:24;;;;;;;8.27;7.80;;;1.90;99.90;;;;;;5029911;28;20283;-65
2023/01/19 05:34:50;;;;;;;9.77;9.13;;;1.80;99.90;;;;;;5004496;28;20173;-66
2023/01/19 05:37:16;;;;;;;11.63;10.73;;;1.70;99.90;;;;;;5032133;28;20228;-65
2023/01/19 05:39:41;;;;;;;9.00;8.60;;;1.60;99.90;;;;;;5034067;28;20553;-66
2023/01/19 05:42:07;;;;;;;9.23;8.43;;;1.40;99.90;;;;;;5017727;28;20275;-65
2023/01/19 05:44:32;;;;;;;8.90;8.30;;;1.40;99.90;;;;;;5014859;28;20226;-66
2023/01/19 05:46:58;;;;;;;8.87;8.37;;;1.40;99.90;;;;;;5028670;28;20195;-65
2023/01/19 05:49:23;;;;;;;11.70;8.10;;;1.30;99.90;;;;;;5034076;28;20175;-65
2023/01/19 05:51:49;;;;;;;9.77;8.90;;;1.30;99.90;;;;;;5032390;28;20184;-65
2023/01/19 05:54:15;;;;;;;8.57;8.13;;;1.20;99.90;;;;;;5034258;28;20163;-66
2023/01/19 05:56:41;;;;;;;9.23;8.83;;;1.20;99.90;;;;;;5032486;28;20178;-66
2023/01/19 05:59:07;;;;;;;7.43;7.13;;;1.20;99.90;;;;;;5032556;28;20179;-65
2023/01/19 06:01:34;;;;;;;8.93;8.33;;;1.10;99.90;;;;;;5025021;28;20234;-66
2023/01/19 06:03:59;;;;;;;7.90;7.50;;;1.10;99.90;;;;;;5014276;28;20242;-65
2023/01/19 06:06:25;;;;;;;8.00;7.60;;;1.10;99.90;;;;;;5021192;28;20183;-65
2023/01/19 06:08:51;;;;;;;8.70;8.27;;;1.10;99.90;;;;;;5033949;28;20521;-66
2023/01/19 06:11:16;;;;;;;9.67;9.07;;;1.10;99.90;;;;;;5028058;28;20200;-65
2023/01/19 06:13:42;;;;;;;7.83;7.53;;;1.10;99.90;;;;;;5014043;28;20603;-65
2023/01/19 06:16:08;;;;;;;8.30;7.50;;;1.10;99.90;;;;;;5015226;28;20167;-64
2023/01/19 06:18:34;;;;;;;7.80;7.30;;;1.00;99.90;;;;;;5024955;28;20169;-64
2023/01/19 06:21:04;;;;;;;8.60;8.10;;;1.00;99.90;;;;;;5012311;28;20222;-65
2023/01/19 06:23:32;;;;;;;7.67;7.27;;;1.00;99.90;;;;;;5012640;28;20250;-65
2023/01/19 06:25:58;;;;;;;8.47;7.97;;;1.00;99.90;;;;;;5013817;28;20184;-65
2023/01/19 06:28:24;;;;;;;8.07;7.67;;;1.00;99.90;;;;;;5033691;28;20176;-65
2023/01/19 06:30:51;;;;;;;9.30;8.70;;;1.00;99.90;;;;;;5029347;28;20211;-65
2023/01/19 06:33:17;;;;;;;9.03;8.53;;;1.10;99.90;;;;;;5014594;28;20216;-65
2023/01/19 06:35:47;;;;;;;13.60;9.67;;;1.10;99.90;;;;;;5025949;28;20184;-64
2023/01/19 06:38:13;;;;;;;9.17;8.43;;;1.10;99.90;;;;;;5033539;28;20178;-65
2023/01/19 06:40:40;;;;;;;8.90;8.20;;;1.00;99.90;;;;;;5021745;28;20187;-65
2023/01/19 06:43:06;;;;;;;10.70;10.07;;;1.00;99.90;;;;;;5013398;28;20279;-65
2023/01/19 06:45:31;;;;;;;9.67;9.00;;;1.00;99.90;;;;;;5022783;28;20269;-65
2023/01/19 06:47:57;;;;;;;9.17;8.50;;;1.10;99.90;;;;;;5033382;28;20644;-64
2023/01/19 06:50:23;;;;;;;10.13;9.63;;;1.10;99.90;;;;;;5024912;28;20199;-65
2023/01/19 06:52:49;;;;;;;10.00;9.43;;;1.10;99.90;;;;;;5013293;28;20689;-65
2023/01/19 06:55:15;;;;;;;10.03;9.13;;;1.10;99.90;;;;;;5019115;28;20171;-65
2023/01/19 06:57:41;;;;;;;10.10;9.37;;;1.10;99.90;;;;;;5033112;28;20167;-64
2023/01/19 07:00:07;;;;;;;9.80;9.20;;;1.10;99.90;;;;;;5031143;28;20211;-65
2023/01/19 07:02:52;;;;;;;11.33;10.57;;;1.10;99.90;;;;;;5026754;28;20222;-65
2023/01/19 07:05:17;;;;;;;9.93;9.43;;;1.10;99.90;;;;;;5013418;28;20184;-65
2023/01/19 07:07:44;;;;;;;10.93;10.33;;;1.10;99.90;;;;;;5012961;28;20657;-65
2023/01/19 07:10:11;;;;;;;9.07;8.20;;;1.10;99.90;;;;;;5012794;28;20704;-64
2023/01/19 07:12:37;;;;;;;10.13;9.40;;;1.10;99.90;;;;;;5012892;28;20275;-65
2023/01/19 07:15:04;;;;;;;9.93;9.23;;;1.10;99.90;;;;;;5012919;28;20169;-64
2023/01/19 07:17:30;;;;;;;10.03;7.93;;;1.10;99.90;;;;;;5012963;28;20176;-65
2023/01/19 07:19:55;;;;;;;9.50;8.87;;;1.10;99.90;;;;;;5013049;28;20267;-65
2023/01/19 07:22:21;;;;;;;8.47;7.97;;;1.20;99.90;;;;;;5013812;28;20674;-65
2023/01/19 07:24:46;;;;;;;8.97;8.43;;;1.30;99.90;;;;;;5013169;28;20180;-63
2023/01/19 07:27:12;;;;;;;8.70;8.30;;;1.30;99.90;;;;;;5012695;28;20187;-64
2023/01/19 07:29:38;;;;;;;10.57;9.60;;;1.30;99.90;;;;;;5010608;28;20566;-65
2023/01/19 07:32:05;;;;;;;14.40;13.37;;;1.00;99.90;;;;;;5013625;28;20261;-65
2023/01/19 07:34:30;;;;;;;10.30;9.67;;;1.30;99.90;;;;;;5011313;28;20186;-64
2023/01/19 07:36:56;;;;;;;12.30;11.50;;;1.30;99.90;;;;;;5012501;28;20172;-64
2023/01/19 07:39:22;;;;;;;10.37;9.67;;;1.30;99.90;;;;;;5010947;28;20226;-65
2023/01/19 07:41:48;;;;;;;9.10;8.60;;;1.40;99.90;;;;;;5011853;28;20239;-65
2023/01/19 07:44:13;;;;;;;10.63;9.97;;;1.40;99.90;;;;;;5007604;28;20180;-64
2023/01/19 07:46:40;;;;;;;10.43;9.83;;;1.40;99.90;;;;;;5011411;28;20494;-64
2023/01/19 07:49:05;;;;;;;8.93;8.33;;;1.40;99.90;;;;;;5011640;28;20184;-63
2023/01/19 07:51:31;;;;;;;9.37;8.77;;;1.50;99.90;;;;;;5012041;28;20294;-64
2023/01/19 07:53:57;;;;;;;8.60;8.10;;;1.50;99.90;;;;;;5011908;28;20208;-64
2023/01/19 07:56:23;;;;;;;9.17;8.53;;;1.50;99.90;;;;;;5010427;28;20527;-64
2023/01/19 07:58:51;;;;;;;9.90;9.20;;;1.50;99.90;;;;;;5016372;28;20183;-64
2023/01/19 08:01:17;;;;;;;7.87;7.57;;;1.50;99.90;;;;;;5011667;28;20206;-63
2023/01/19 08:03:42;;;;;;;8.07;7.67;;;1.50;99.90;;;;;;5003192;28;20200;-64
2023/01/19 08:06:21;;;;;;;8.77;8.27;;;1.60;99.90;;;;;;5011939;28;20188;-64
2023/01/19 08:08:47;;;;;;;10.87;10.10;;;1.60;99.90;;;;;;5011576;28;20184;-63
2023/01/19 08:11:12;;;;;;;8.57;8.17;;;1.60;99.90;;;;;;5011355;28;20215;-64
2023/01/19 08:13:38;;;;;;;11.47;9.30;;;1.60;99.90;;;;;;5011171;28;20644;-64
2023/01/19 08:16:04;;;;;;;7.60;7.20;;;1.70;99.90;;;;;;5011248;28;20203;-64
2023/01/19 08:18:29;;;;;;;10.13;9.33;;;1.70;99.90;;;;;;5010988;28;20183;-64
2023/01/19 08:20:57;;;;;;;9.73;9.13;;;1.70;99.90;;;;;;5011206;28;20191;-64
2023/01/19 08:23:23;;;;;;;9.30;8.83;;;1.70;99.90;;;;;;5011528;28;20207;-63
2023/01/19 08:25:48;;;;;;;8.53;8.10;;;1.70;99.90;;;;;;5010955;28;20600;-64
2023/01/19 08:28:15;;;;;;;8.77;8.17;;;1.70;99.90;;;;;;5011886;28;20176;-63
2023/01/19 08:30:43;;;;;;;9.20;8.70;;;1.70;99.90;;;;;;5009593;28;20204;-63
2023/01/19 08:33:10;;;;;;;9.20;8.60;;;1.70;99.90;;;;;;5010870;28;20196;-63
2023/01/19 08:35:38;;;;;;;10.93;10.13;;;1.70;99.90;;;;;;5009239;28;20388;-63
2023/01/19 08:38:05;;;;;;;9.53;8.97;;;1.80;99.90;;;;;;5011674;28;20602;-63
2023/01/19 08:40:33;;;;;;;10.43;9.60;;;1.80;99.90;;;;;;5010833;28;20206;-64
2023/01/19 08:43:09;;;;;;;11.83;10.80;;;1.80;99.90;;;;;;5011123;28;20562;-64
2023/01/19 08:45:41;;;;;;;9.87;9.07;;;1.80;99.90;;;;;;5014930;28;20176;-63
2023/01/19 08:48:06;;;;;;;9.20;8.77;;;1.80;99.90;;;;;;5015211;28;20245;-63
2023/01/19 08:50:33;;;;;;;8.80;8.30;;;1.80;99.90;;;;;;5014940;28;20650;-63
2023/01/19 08:53:01;;;;;;;9.63;8.77;;;1.90;99.90;;;;;;5015122;28;20192;-63
2023/01/19 08:55:28;;;;;;;11.23;10.53;;;1.90;99.90;;;;;;5015793;28;20223;-63
2023/01/19 08:57:56;;;;;;;10.70;9.90;;;1.90;99.90;;;;;;5015089;28;20172;-64
2023/01/19 09:00:23;;;;;;;9.10;8.43;;;2.00;99.90;;;;;;4995567;28;20177;-62
2023/01/19 09:02:49;;;;;;;9.27;8.77;;;2.00;99.90;;;;;;4995369;28;20193;-63
2023/01/19 09:05:14;;;;;;;10.43;9.67;;;2.00;99.90;;;;;;5013336;28;20199;-63
2023/01/19 09:07:40;;;;;;;11.60;10.70;;;2.10;99.90;;;;;;5015094;28;20263;-63
2023/01/19 09:10:07;;;;;;;12.27;11.27;;;2.10;99.90;;;;;;5014790;28;20232;-63
2023/01/19 09:12:32;;;;;;;11.40;10.23;;;2.10;99.90;;;;;;5015025;28;20218;-63
2023/01/19 09:14:58;;;;;;;8.80;7.90;;;2.10;99.90;;;;;;5014839;28;20263;-63
2023/01/19 09:17:24;;;;;;;9.40;8.53;;;2.20;99.90;;;;;;5015010;28;20184;-63
2023/01/19 09:19:49;;;;;;;10.97;8.83;;;2.20;99.90;;;;;;5014400;28;20598;-63
2023/01/19 09:22:15;;;;;;;10.80;9.83;;;2.30;99.90;;;;;;5014947;28;20685;-63
2023/01/19 09:24:40;;;;;;;10.90;9.73;;;2.30;99.90;;;;;;5013782;28;20202;-62
2023/01/19 09:27:06;;;;;;;9.37;8.60;;;2.40;99.90;;;;;;5014619;28;20188;-63
2023/01/19 09:29:31;;;;;;;9.10;8.27;;;2.40;99.90;;;;;;5014335;28;20526;-62
2023/01/19 09:31:57;;;;;;;9.23;8.53;;;2.60;99.90;;;;;;5013920;28;20242;-62
2023/01/19 09:34:24;;;;;;;9.07;8.37;;;2.40;99.90;;;;;;5014119;28;20259;-62
2023/01/19 09:36:51;;;;;;;11.00;9.90;;;2.50;99.90;;;;;;5014562;28;20192;-63
2023/01/19 09:39:16;;;;;;;9.97;9.27;;;2.40;99.90;;;;;;5014428;28;20180;-63
2023/01/19 09:41:48;;;;;;;10.43;9.63;;;2.40;99.90;;;;;;5014455;28;20184;-63
2023/01/19 09:44:33;;;;;;;8.37;7.73;;;2.40;99.90;;;;;;5014747;28;20646;-63
2023/01/19 09:47:02;;;;;;;9.43;8.70;;;2.30;99.90;;;;;;5014007;28;20176;-63
2023/01/19 09:49:37;;;;;;;9.87;9.07;;;2.20;99.90;;;;;;5014481;28;20172;-62
2023/01/19 09:52:04;;;;;;;12.77;10.90;;;2.30;99.90;;;;;;5014757;28;20183;-62
2023/01/19 09:54:44;;;;;;;11.47;10.47;;;2.10;99.90;;;;;;5014227;28;20180;-63
2023/01/19 09:57:10;;;;;;;9.37;8.63;;;2.10;99.90;;;;;;5014316;28;20176;-63
2023/01/19 09:59:37;;;;;;;9.40;8.63;;;2.10;99.90;;;;;;5014073;28;20568;-63
2023/01/19 10:02:31;;;;;;;9.23;8.53;;;2.20;99.90;;;;;;5014241;28;20176;-63
2023/01/19 10:05:13;;;;;;;9.60;8.70;;;2.00;99.90;;;;;;5013553;28;20187;-63
2023/01/19 10:07:52;;;;;;;7.20;6.87;;;2.00;99.90;;;;;;5014206;28;20203;-63
2023/01/19 10:10:25;;;;;;;9.80;8.97;;;2.10;99.90;;;;;;5013893;28;20231;-63
2023/01/19 10:13:00;;;;;;;8.63;7.87;;;2.10;99.90;;;;;;5014135;28;20291;-63
2023/01/19 10:15:46;;;;;;;10.23;9.33;;;2.20;99.90;;;;;;5013784;28;20182;-62
2023/01/19 10:18:21;;;;;;;7.90;7.50;;;2.20;99.90;;;;;;5013130;28;20184;-63
2023/01/19 10:21:10;;;;;;;10.60;8.90;;;2.20;99.90;;;;;;5013402;28;20214;-63
2023/01/19 10:23:41;;;;;;;9.80;8.97;;;2.30;99.90;;;;;;5013736;28;20570;-63
2023/01/19 10:26:35;;;;;;;10.67;9.67;;;2.40;99.90;;;;;;5013823;28;20251;-63
2023/01/19 10:29:06;;;;;;;7.77;7.33;;;2.40;99.90;;;;;;5013796;28;20181;-63
2023/01/19 10:31:36;;;;;;;8.90;8.10;;;2.30;99.90;;;;;;5013383;28;20666;-63
2023/01/19 10:34:02;;;;;;;23.30;13.33;;;2.50;99.90;;;;;;5013632;28;20199;-63
2023/01/19 10:36:34;;;;;;;11.03;10.10;;;2.50;99.90;;;;;;5013639;28;20263;-63
2023/01/19 10:39:02;;;;;;;11.83;9.93;;;2.60;99.90;;;;;;5013595;28;20172;-63
2023/01/19 10:41:39;;;;;;;18.07;12.07;;;2.60;99.90;;;;;;5012947;28;20227;-63
2023/01/19 10:44:06;;;;;;;8.33;7.70;;;2.70;99.90;;;;;;5013596;28;20199;-63
2023/01/19 10:46:45;;;;;;;9.70;8.63;;;2.80;99.90;;;;;;5013409;28;20657;-63
2023/01/19 10:49:38;;;;;;;16.17;10.73;;;2.90;99.90;;;;;;5010931;28;20196;-63
2023/01/19 10:52:18;;;;;;;11.90;9.93;;;2.60;99.90;;;;;;5013510;28;20259;-63
2023/01/19 10:54:47;;;;;;;11.30;10.10;;;3.00;99.90;;;;;;5013124;28;20326;-63
2023/01/19 10:57:24;;;;;;;10.30;9.40;;;3.00;99.90;;;;;;5012972;28;20517;-63
2023/01/19 10:59:50;;;;;;;14.13;11.97;;;3.10;99.90;;;;;;5011283;28;20184;-63
2023/01/19 11:02:27;;;;;;;8.90;8.20;;;3.10;99.90;;;;;;5013197;28;20200;-63
2023/01/19 11:05:26;;;;;;;10.97;9.57;;;3.20;99.90;;;;;;5012110;28;20183;-63
2023/01/19 11:07:52;;;;;;;9.43;8.73;;;3.20;99.90;;;;;;5012010;28;20227;-63
2023/01/19 11:10:24;;;;;;;11.80;10.70;;;3.30;99.90;;;;;;5012549;28;20666;-63
2023/01/19 11:13:14;;;;;;;12.33;11.20;;;3.40;99.90;;;;;;5012790;28;20246;-63
2023/01/19 11:15:43;;;;;;;12.83;11.73;;;3.50;99.90;;;;;;5009754;28;20188;-63
2023/01/19 11:18:23;;;;;;;9.87;9.30;;;3.70;99.90;;;;;;5012775;28;20551;-63
2023/01/19 11:20:52;;;;;;;9.23;8.40;;;4.10;99.90;;;;;;5012234;28;20182;-63
2023/01/19 11:23:17;;;;;;;8.70;7.80;;;4.50;99.90;;;;;;5012528;28;20200;-63
2023/01/19 11:25:48;;;;;;;11.93;8.53;;;4.80;99.90;;;;;;5012438;28;20321;-63
2023/01/19 11:28:26;;;;;;;14.27;6.90;;;4.90;99.90;;;;;;5012771;28;20172;-63
2023/01/19 11:31:01;;;;;;;9.00;8.13;;;4.70;99.90;;;;;;5012204;28;20792;-63
2023/01/19 11:33:47;;;;;;;11.13;9.53;;;4.60;99.90;;;;;;5012437;28;20191;-63
2023/01/19 11:36:28;;;;;;;8.63;7.73;;;4.50;99.90;;;;;;5012534;28;20625;-63
2023/01/19 11:38:56;;;;;;;10.77;9.87;;;4.30;99.90;;;;;;5012274;28;20207;-63
2023/01/19 11:41:26;;;;;;;9.93;8.97;;;4.20;99.90;;;;;;5012011;28;20263;-63
2023/01/19 11:43:55;;;;;;;9.90;9.10;;;4.20;99.90;;;;;;5012298;28;20269;-63
2023/01/19 11:46:25;;;;;;;9.77;8.83;;;4.20;99.90;;;;;;5012369;28;20180;-63
2023/01/19 11:49:00;;;;;;;9.00;8.30;;;4.10;99.90;;;;;;5012032;28;20180;-62
2023/01/19 11:51:37;;;;;;;10.27;9.47;;;4.20;99.90;;;;;;5009698;28;20254;-63
2023/01/19 11:54:20;;;;;;;11.03;10.03;;;4.20;99.90;;;;;;5011692;28;20273;-63
2023/01/19 11:56:47;;;;;;;10.40;9.67;;;4.20;99.90;;;;;;5010439;28;20188;-62
2023/01/19 11:59:13;;;;;;;22.00;8.47;;;4.20;99.90;;;;;;5011865;28;20251;-62
2023/01/19 12:01:48;;;;;;;10.37;8.33;;;4.10;99.90;;;;;;5012043;28;20188;-62
2023/01/19 12:04:19;;;;;;;10.83;9.67;;;4.10;99.90;;;;;;5011389;28;20199;-63
2023/01/19 12:06:51;;;;;;;9.20;8.57;;;4.20;99.90;;;;;;5010576;28;20225;-63
2023/01/19 12:09:47;;;;;;;12.40;10.50;;;4.20;99.90;;;;;;5010566;28;20209;-62
2023/01/19 12:12:29;;;;;;;10.07;9.17;;;4.10;99.90;;;;;;4992416;28;20266;-62
2023/01/19 12:15:03;;;;;;;8.57;7.87;;;4.10;99.90;;;;;;4997537;28;20191;-63
2023/01/19 12:17:35;;;;;;;9.77;8.83;;;4.10;99.90;;;;;;5011042;28;20176;-62
2023/01/19 12:20:25;;;;;;;9.53;8.87;;;4.10;99.90;;;;;;5011261;28;20554;-62
2023/01/19 12:23:17;;;;;;;13.97;10.17;;;4.10;99.90;;;;;;5009435;28;20554;-63
2023/01/19 12:25:57;;;;;;;10.30;9.40;;;4.30;99.90;;;;;;5010606;28;20218;-62
2023/01/19 12:28:29;;;;;;;12.20;7.83;;;4.40;99.90;;;;;;5001797;28;20192;-62
2023/01/19 12:30:57;;;;;;;8.23;7.60;;;4.30;99.90;;;;;;5011296;28;20290;-62
2023/01/19 12:33:33;;;;;;;8.63;7.83;;;4.40;99.90;;;;;;5011295;28;20266;-63
2023/01/19 12:36:35;;;;;;;10.10;8.27;;;4.50;99.90;;;;;;5011169;28;20171;-62
2023/01/19 12:39:31;;;;;;;10.23;8.37;;;4.70;99.90;;;;;;5011468;28;20211;-62
2023/01/19 12:42:09;;;;;;;9.37;8.67;;;4.80;99.90;;;;;;5006465;28;20216;-62
2023/01/19 12:44:35;;;;;;;15.67;8.80;;;4.80;99.90;;;;;;5011312;28;20700;-63
2023/01/19 12:47:19;;;;;;;8.63;8.00;;;4.70;99.90;;;;;;5010846;28;20188;-63
2023/01/19 12:49:48;;;;;;;8.27;7.67;;;4.60;99.90;;;;;;5010809;28;20180;-62
2023/01/19 12:52:34;;;;;;;9.53;8.93;;;4.30;99.90;;;;;;5010982;28;20642;-62
2023/01/19 12:55:11;;;;;;;9.20;8.60;;;4.10;99.90;;;;;;5008927;28;20255;-62
2023/01/19 12:58:02;;;;;;;11.10;10.17;;;4.00;99.90;;;;;;4991572;28;20581;-63
2023/01/19 13:00:35;;;;;;;11.17;10.07;;;4.00;99.90;;;;;;4994464;28;20643;-63
2023/01/19 13:03:26;;;;;;;11.93;11.07;;;4.00;99.90;;;;;;5011248;28;20281;-63
2023/01/19 13:05:54;;;;;;;9.07;8.47;;;3.90;99.90;;;;;;5003280;28;20208;-63
2023/01/19 13:08:21;;;;;;;11.37;10.63;;;3.90;99.90;;;;;;4991914;28;20177;-62
2023/01/19 13:10:59;;;;;;;26.77;13.80;;;3.80;99.90;;;;;;4996546;28;20211;-62
2023/01/19 13:13:26;;;;;;;10.83;10.10;;;3.70;99.90;;;;;;5010970;28;20213;-63
2023/01/19 13:15:53;;;;;;;21.97;15.63;;;3.50;99.90;;;;;;5010830;28;20184;-63
2023/01/19 13:18:23;;;;;;;26.83;18.47;;;3.40;99.90;;;;;;5011356;28;20183;-63
2023/01/19 13:20:59;;;;;;;14.33;11.30;;;3.30;99.90;;;;;;5010462;28;20646;-62